Time,TemperatureF,DewpointF,PressureIn,WindDirection,WindDirectionDegrees,WindSpeedMPH,WindSpeedGustMPH,Humidity,HourlyPrecipIn,Conditions,Clouds,dailyrainin,SoftwareType,DateUTC
2013-02-05 00:00:00,29.0,27.0,30.11,South,188,1.0,3.0,91,0.00,,,-99.99,,2013-02-05 07:00:00,
2013-02-05 00:32:00,29.0,27.0,30.11,South,188,1.0,3.0,91,0.00,,,-99.99,,2013-02-05 07:32:00,
2013-02-05 00:42:00,29.0,27.0,30.11,South,188,1.0,3.0,91,0.00,,,-99.99,,2013-02-05 07:42:00,
2013-02-05 00:52:00,29.0,27.0,30.11,South,188,1.0,3.0,91,0.00,,,-99.99,,2013-02-05 07:52:00,
2013-02-05 01:00:00,28.0,26.0,30.13,South,181,2.0,4.0,92,0.00,,,-99.99,,2013-02-05 08:00:00,
2013-02-05 01:42:00,28.0,26.0,30.13,South,181,2.0,4.0,92,0.00,,,-99.99,,2013-02-05 08:42:00,
2013-02-05 01:52:00,28.0,26.0,30.13,South,181,2.0,4.0,92,0.00,,,-99.99,,2013-02-05 08:52:00,
2013-02-05 02:00:00,29.0,27.0,30.12,SSE,168,3.0,6.0,91,0.00,,,-99.99,,2013-02-05 09:00:00,
2013-02-05 02:42:00,29.0,27.0,30.12,SSE,168,3.0,6.0,91,0.00,,,-99.99,,2013-02-05 09:42:00,
2013-02-05 02:52:00,29.0,27.0,30.12,SSE,168,3.0,6.0,91,0.00,,,-99.99,,2013-02-05 09:52:00,
2013-02-05 03:00:00,28.0,26.0,30.12,WSW,238,1.0,3.0,93,0.00,,,-99.99,,2013-02-05 10:00:00,
2013-02-05 03:42:00,28.0,26.0,30.12,WSW,238,1.0,3.0,93,0.00,,,-99.99,,2013-02-05 10:42:00,
2013-02-05 03:52:00,28.0,26.0,30.12,WSW,238,1.0,3.0,93,0.00,,,-99.99,,2013-02-05 10:52:00,
2013-02-05 05:00:00,26.0,24.0,30.13,South,185,1.0,3.0,94,0.00,,,-99.99,,2013-02-05 12:00:00,
2013-02-05 05:32:00,26.0,24.0,30.13,South,185,1.0,3.0,94,0.00,,,-99.99,,2013-02-05 12:32:00,
2013-02-05 05:42:00,26.0,24.0,30.13,South,185,1.0,3.0,94,0.00,,,-99.99,,2013-02-05 12:42:00,
2013-02-05 05:52:00,26.0,24.0,30.13,South,185,1.0,3.0,94,0.00,,,-99.99,,2013-02-05 12:52:00,
2013-02-05 06:00:00,26.0,25.0,30.12,South,171,1.0,3.0,95,0.00,,,-99.99,,2013-02-05 13:00:00,
2013-02-05 06:32:00,26.0,25.0,30.12,South,171,1.0,3.0,95,0.00,,,-99.99,,2013-02-05 13:32:00,
2013-02-05 06:42:00,26.0,25.0,30.12,South,171,1.0,3.0,95,0.00,,,-99.99,,2013-02-05 13:42:00,
2013-02-05 06:52:00,26.0,25.0,30.12,South,171,1.0,3.0,95,0.00,,,-99.99,,2013-02-05 13:52:00,
2013-02-05 07:00:00,25.0,24.0,30.14,SSE,165,2.0,4.0,95,0.00,,,-99.99,,2013-02-05 14:00:00,
2013-02-05 07:42:00,25.0,24.0,30.14,SSE,165,2.0,4.0,95,0.00,,,-99.99,,2013-02-05 14:42:00,
2013-02-05 07:52:00,25.0,24.0,30.14,SSE,165,2.0,4.0,95,0.00,,,-99.99,,2013-02-05 14:52:00,
2013-02-05 08:00:00,25.0,24.0,30.14,SSE,160,1.0,3.0,94,0.00,,,-99.99,,2013-02-05 15:00:00,
2013-02-05 08:42:00,25.0,24.0,30.14,SSE,160,1.0,3.0,94,0.00,,,-99.99,,2013-02-05 15:42:00,
2013-02-05 08:52:00,25.0,24.0,30.14,SSE,160,1.0,3.0,94,0.00,,,-99.99,,2013-02-05 15:52:00,
2013-02-05 09:00:00,29.0,27.0,30.14,WNW,288,1.0,5.0,92,0.01,,,-99.99,,2013-02-05 16:00:00,
2013-02-05 09:42:00,29.0,27.0,30.14,WNW,288,1.0,5.0,92,0.01,,,-99.99,,2013-02-05 16:42:00,
2013-02-05 09:52:00,29.0,27.0,30.14,WNW,288,1.0,5.0,92,0.01,,,-99.99,,2013-02-05 16:52:00,
2013-02-05 11:00:00,35.0,28.0,30.15,NW,311,3.0,5.0,76,0.00,,,-99.99,,2013-02-05 18:00:00,
2013-02-05 11:42:00,35.0,28.0,30.15,NW,311,3.0,5.0,76,0.00,,,-99.99,,2013-02-05 18:42:00,
2013-02-05 11:52:00,35.0,28.0,30.15,NW,311,3.0,5.0,76,0.00,,,-99.99,,2013-02-05 18:52:00,
2013-02-05 12:00:00,38.0,29.0,30.14,NW,314,3.0,6.0,70,0.00,,,-99.99,,2013-02-05 19:00:00,
2013-02-05 12:42:00,38.0,29.0,30.14,NW,314,3.0,6.0,70,0.00,,,-99.99,,2013-02-05 19:42:00,
2013-02-05 12:52:00,38.0,29.0,30.14,NW,314,3.0,6.0,70,0.00,,,-99.99,,2013-02-05 19:52:00,
2013-02-05 13:00:00,41.0,30.0,30.10,WNW,301,3.0,6.0,64,0.00,,,-99.99,,2013-02-05 20:00:00,
2013-02-05 13:32:00,41.0,30.0,30.10,WNW,301,3.0,6.0,64,0.00,,,-99.99,,2013-02-05 20:32:00,
2013-02-05 13:42:00,41.0,30.0,30.10,WNW,301,3.0,6.0,64,0.00,,,-99.99,,2013-02-05 20:42:00,
2013-02-05 13:52:00,41.0,30.0,30.10,WNW,301,3.0,6.0,64,0.00,,,-99.99,,2013-02-05 20:52:00,
2013-02-05 14:00:00,43.0,30.0,30.06,West,260,3.0,6.0,58,0.00,,,-99.99,,2013-02-05 21:00:00,
2013-02-05 14:42:00,43.0,30.0,30.06,West,260,3.0,6.0,58,0.00,,,-99.99,,2013-02-05 21:42:00,
2013-02-05 14:52:00,43.0,30.0,30.06,West,260,3.0,6.0,58,0.00,,,-99.99,,2013-02-05 21:52:00,
2013-02-05 15:00:00,45.0,30.0,30.03,WNW,287,3.0,6.0,54,0.00,,,-99.99,,2013-02-05 22:00:00,
2013-02-05 15:42:00,45.0,30.0,30.03,WNW,287,3.0,6.0,54,0.00,,,-99.99,,2013-02-05 22:42:00,
2013-02-05 15:52:00,45.0,30.0,30.03,WNW,287,3.0,6.0,54,0.00,,,-99.99,,2013-02-05 22:52:00,
2013-02-05 16:00:00,46.0,27.0,30.01,SW,234,4.0,6.0,47,0.00,,,-99.99,,2013-02-05 23:00:00,
2013-02-05 16:32:00,46.0,27.0,30.01,SW,234,4.0,6.0,47,0.00,,,-99.99,,2013-02-05 23:32:00,
2013-02-05 16:42:00,46.0,27.0,30.01,SW,234,4.0,6.0,47,0.00,,,-99.99,,2013-02-05 23:42:00,
2013-02-05 16:52:00,46.0,27.0,30.01,SW,234,4.0,6.0,47,0.00,,,-99.99,,2013-02-05 23:52:00,
2013-02-05 17:00:00,43.0,27.0,30.00,SW,218,3.0,5.0,53,0.00,,,-99.99,,2013-02-06 00:00:00,
2013-02-05 17:42:00,43.0,27.0,30.00,SW,218,3.0,5.0,53,0.00,,,-99.99,,2013-02-06 00:42:00,
2013-02-05 17:52:00,43.0,27.0,30.00,SW,218,3.0,5.0,53,0.00,,,-99.99,,2013-02-06 00:52:00,
2013-02-05 18:00:00,40.0,27.0,29.99,SW,219,2.0,3.0,59,0.00,,,-99.99,,2013-02-06 01:00:00,
2013-02-05 18:42:00,40.0,27.0,29.99,SW,219,2.0,3.0,59,0.00,,,-99.99,,2013-02-06 01:42:00,
2013-02-05 18:53:00,40.0,27.0,29.99,SW,219,2.0,3.0,59,0.00,,,-99.99,,2013-02-06 01:53:00,
2013-02-05 19:00:00,37.0,27.0,29.98,South,188,2.0,4.0,66,0.00,,,-99.99,,2013-02-06 02:00:00,
2013-02-05 19:42:00,37.0,27.0,29.98,South,188,2.0,4.0,66,0.00,,,-99.99,,2013-02-06 02:42:00,
2013-02-05 19:52:00,37.0,27.0,29.98,South,188,2.0,4.0,66,0.00,,,-99.99,,2013-02-06 02:52:00,
2013-02-05 20:00:00,35.0,27.0,29.97,South,175,1.0,3.0,72,0.00,,,-99.99,,2013-02-06 03:00:00,
2013-02-05 20:42:00,35.0,27.0,29.97,South,175,1.0,3.0,72,0.00,,,-99.99,,2013-02-06 03:42:00,
2013-02-05 20:53:00,35.0,27.0,29.97,South,175,1.0,3.0,72,0.00,,,-99.99,,2013-02-06 03:53:00,
2013-02-05 21:00:00,34.0,27.0,29.97,WNW,282,2.0,4.0,77,0.00,,,-99.99,,2013-02-06 04:00:00,
2013-02-05 21:42:00,34.0,27.0,29.97,WNW,282,2.0,4.0,77,0.00,,,-99.99,,2013-02-06 04:42:00,
2013-02-05 21:52:00,34.0,27.0,29.97,WNW,282,2.0,4.0,77,0.00,,,-99.99,,2013-02-06 04:52:00,
2013-02-05 22:00:00,32.0,28.0,29.97,SSE,157,3.0,6.0,82,0.00,,,-99.99,,2013-02-06 05:00:00,
2013-02-05 22:42:00,32.0,28.0,29.97,SSE,157,3.0,6.0,82,0.00,,,-99.99,,2013-02-06 05:42:00,
2013-02-05 22:53:00,32.0,28.0,29.97,SSE,157,3.0,6.0,82,0.00,,,-99.99,,2013-02-06 05:53:00,
2013-02-05 23:00:00,32.0,27.0,29.95,SSE,157,2.0,7.0,82,0.00,,,-99.99,,2013-02-06 06:00:00,
2013-02-05 23:32:00,32.0,27.0,29.95,SSE,157,2.0,7.0,82,0.00,,,-99.99,,2013-02-06 06:32:00,
2013-02-05 23:42:00,32.0,27.0,29.95,SSE,157,2.0,7.0,82,0.00,,,-99.99,,2013-02-06 06:42:00,
2013-02-05 23:52:00,32.0,27.0,29.95,SSE,157,2.0,7.0,82,0.00,,,-99.99,,2013-02-06 06:52:00,